sensor_id;sensor_type;location;lat;lon;timestamp;pressure;altitude;pressure_sealevel;temperature;humidity
11692;BME280;33659;42.672;23.354;2023-01-30T00:00:02;94571.50;;;0.22;73.91
11692;BME280;33659;42.672;23.354;2023-01-30T00:02:31;94568.16;;;0.22;73.40
11692;BME280;33659;42.672;23.354;2023-01-30T00:04:58;94568.16;;;0.17;73.75
11692;BME280;33659;42.672;23.354;2023-01-30T00:07:24;94550.19;;;0.17;74.59
11692;BME280;33659;42.672;23.354;2023-01-30T00:09:51;94564.84;;;0.16;74.29
11692;BME280;33659;42.672;23.354;2023-01-30T00:12:18;94559.44;;;0.13;74.88
11692;BME280;33659;42.672;23.354;2023-01-30T00:14:44;94555.84;;;0.14;74.84
11692;BME280;33659;42.672;23.354;2023-01-30T00:17:11;94572.28;;;0.18;74.49
11692;BME280;33659;42.672;23.354;2023-01-30T00:19:39;94567.91;;;0.13;74.43
11692;BME280;33659;42.672;23.354;2023-01-30T00:22:06;94563.28;;;0.15;74.62
11692;BME280;33659;42.672;23.354;2023-01-30T00:24:32;94563.56;;;0.14;74.58
11692;BME280;33659;42.672;23.354;2023-01-30T00:26:59;94554.81;;;0.25;74.87
11692;BME280;33659;42.672;23.354;2023-01-30T00:29:26;94571.78;;;0.21;74.33
11692;BME280;33659;42.672;23.354;2023-01-30T00:31:52;94563.78;;;0.17;75.06
11692;BME280;33659;42.672;23.354;2023-01-30T00:34:19;94565.59;;;0.12;75.01
11692;BME280;33659;42.672;23.354;2023-01-30T00:36:47;94567.13;;;0.03;75.88
11692;BME280;33659;42.672;23.354;2023-01-30T00:39:14;94565.06;;;-0.01;75.58
11692;BME280;33659;42.672;23.354;2023-01-30T00:41:40;94544.00;;;-0.08;75.79
11692;BME280;33659;42.672;23.354;2023-01-30T00:44:25;94541.97;;;-0.01;75.40
11692;BME280;33659;42.672;23.354;2023-01-30T00:47:09;94554.03;;;-0.01;76.00
11692;BME280;33659;42.672;23.354;2023-01-30T00:49:36;94546.63;;;0.08;75.77
11692;BME280;33659;42.672;23.354;2023-01-30T00:52:04;94531.72;;;0.05;75.68
11692;BME280;33659;42.672;23.354;2023-01-30T00:54:31;94539.91;;;-0.04;75.62
11692;BME280;33659;42.672;23.354;2023-01-30T00:56:58;94539.41;;;-0.11;75.92
11692;BME280;33659;42.672;23.354;2023-01-30T00:59:25;94533.75;;;-0.08;75.98
11692;BME280;33659;42.672;23.354;2023-01-30T01:01:51;94550.69;;;-0.07;76.15
11692;BME280;33659;42.672;23.354;2023-01-30T01:04:18;94539.16;;;-0.09;76.29
11692;BME280;33659;42.672;23.354;2023-01-30T01:06:45;94549.41;;;-0.09;76.01
11692;BME280;33659;42.672;23.354;2023-01-30T01:09:13;94551.72;;;-0.08;75.96
11692;BME280;33659;42.672;23.354;2023-01-30T01:11:40;94554.81;;;-0.06;76.44
11692;BME280;33659;42.672;23.354;2023-01-30T01:14:06;94548.91;;;-0.01;76.01
11692;BME280;33659;42.672;23.354;2023-01-30T01:16:34;94534.25;;;-0.01;75.96
11692;BME280;33659;42.672;23.354;2023-01-30T01:19:01;94549.66;;;-0.01;75.60
11692;BME280;33659;42.672;23.354;2023-01-30T01:21:28;94537.38;;;0.02;75.56
11692;BME280;33659;42.672;23.354;2023-01-30T01:23:56;94519.38;;;-0.04;75.79
11692;BME280;33659;42.672;23.354;2023-01-30T01:26:25;94518.34;;;-0.08;76.43
11692;BME280;33659;42.672;23.354;2023-01-30T01:28:53;94527.84;;;-0.03;76.03
11692;BME280;33659;42.672;23.354;2023-01-30T01:31:20;94510.66;;;-0.13;76.01
11692;BME280;33659;42.672;23.354;2023-01-30T01:33:48;94521.94;;;-0.09;76.31
11692;BME280;33659;42.672;23.354;2023-01-30T01:36:14;94520.16;;;-0.03;76.17
11692;BME280;33659;42.672;23.354;2023-01-30T01:38:42;94529.13;;;-0.01;75.46
11692;BME280;33659;42.672;23.354;2023-01-30T01:41:09;94525.03;;;0.04;75.82
11692;BME280;33659;42.672;23.354;2023-01-30T01:44:01;94525.31;;;0.07;75.53
11692;BME280;33659;42.672;23.354;2023-01-30T01:46:30;94522.97;;;0.06;75.22
11692;BME280;33659;42.672;23.354;2023-01-30T01:49:00;94534.53;;;0.08;75.43
11692;BME280;33659;42.672;23.354;2023-01-30T01:51:31;94529.41;;;0.13;75.12
11692;BME280;33659;42.672;23.354;2023-01-30T01:54:04;94521.44;;;0.15;74.65
11692;BME280;33659;42.672;23.354;2023-01-30T01:56:33;94523.47;;;0.13;75.28
11692;BME280;33659;42.672;23.354;2023-01-30T01:59:08;94525.53;;;0.06;75.35
11692;BME280;33659;42.672;23.354;2023-01-30T02:01:36;94524.00;;;0.05;75.12
11692;BME280;33659;42.672;23.354;2023-01-30T02:04:05;94539.41;;;-0.01;75.77
11692;BME280;33659;42.672;23.354;2023-01-30T02:06:38;94532.72;;;-0.02;75.88
11692;BME280;33659;42.672;23.354;2023-01-30T02:09:08;94525.03;;;0.04;75.20
11692;BME280;33659;42.672;23.354;2023-01-30T02:11:38;94523.50;;;0.03;75.61
11692;BME280;33659;42.672;23.354;2023-01-30T02:14:09;94525.31;;;0.07;75.32
11692;BME280;33659;42.672;23.354;2023-01-30T02:16:36;94524.78;;;0.10;74.80
11692;BME280;33659;42.672;23.354;2023-01-30T02:19:05;94531.97;;;0.08;74.84
11692;BME280;33659;42.672;23.354;2023-01-30T02:24:50;94524.00;;;-0.01;75.10
11692;BME280;33659;42.672;23.354;2023-01-30T02:31:01;94530.69;;;0.11;75.06
11692;BME280;33659;42.672;23.354;2023-01-30T02:33:38;94512.22;;;0.09;75.12
11692;BME280;33659;42.672;23.354;2023-01-30T02:36:13;94510.13;;;0.11;74.48
11692;BME280;33659;42.672;23.354;2023-01-30T02:38:48;94520.16;;;0.07;74.03
11692;BME280;33659;42.672;23.354;2023-01-30T02:41:26;94521.97;;;0.02;74.24
11692;BME280;33659;42.672;23.354;2023-01-30T02:44:02;94520.69;;;-0.06;74.88
11692;BME280;33659;42.672;23.354;2023-01-30T02:46:37;94505.28;;;-0.06;74.65
11692;BME280;33659;42.672;23.354;2023-01-30T02:49:08;94514.75;;;-0.02;74.60
11692;BME280;33659;42.672;23.354;2023-01-30T02:51:38;94508.38;;;0.01;74.53
11692;BME280;33659;42.672;23.354;2023-01-30T02:54:05;94502.44;;;-0.05;74.21
11692;BME280;33659;42.672;23.354;2023-01-30T02:56:43;94509.13;;;0.07;74.39
11692;BME280;33659;42.672;23.354;2023-01-30T02:59:11;94510.13;;;0.11;74.13
11692;BME280;33659;42.672;23.354;2023-01-30T03:02:08;94519.16;;;0.13;73.73
11692;BME280;33659;42.672;23.354;2023-01-30T03:04:48;94517.09;;;0.20;73.56
11692;BME280;33659;42.672;23.354;2023-01-30T03:07:26;94521.44;;;0.25;73.30
11692;BME280;33659;42.672;23.354;2023-01-30T03:10:02;94507.59;;;0.26;73.43
11692;BME280;33659;42.672;23.354;2023-01-30T03:12:39;94499.88;;;0.21;73.07
11692;BME280;33659;42.672;23.354;2023-01-30T03:15:10;94504.75;;;0.12;72.79
11692;BME280;33659;42.672;23.354;2023-01-30T03:17:43;94488.31;;;0.18;72.67
11692;BME280;33659;42.672;23.354;2023-01-30T03:20:11;94486.53;;;0.09;73.38
11692;BME280;33659;42.672;23.354;2023-01-30T03:22:39;94504.50;;;0.09;73.51
11692;BME280;33659;42.672;23.354;2023-01-30T03:25:07;94492.16;;;0.11;73.68
11692;BME280;33659;42.672;23.354;2023-01-30T03:27:34;94482.66;;;0.11;73.32
11692;BME280;33659;42.672;23.354;2023-01-30T03:30:01;94464.19;;;0.04;72.81
11692;BME280;33659;42.672;23.354;2023-01-30T03:32:28;94467.03;;;-0.08;73.08
11692;BME280;33659;42.672;23.354;2023-01-30T03:34:56;94472.66;;;-0.21;73.19
11692;BME280;33659;42.672;23.354;2023-01-30T03:37:22;94460.38;;;-0.19;73.54
11692;BME280;33659;42.672;23.354;2023-01-30T03:39:49;94475.75;;;-0.19;73.50
11692;BME280;33659;42.672;23.354;2023-01-30T03:42:16;94464.97;;;-0.21;73.54
11692;BME280;33659;42.672;23.354;2023-01-30T03:44:42;94477.31;;;-0.18;73.83
11692;BME280;33659;42.672;23.354;2023-01-30T03:47:09;94472.66;;;-0.21;73.75
11692;BME280;33659;42.672;23.354;2023-01-30T03:49:36;94454.72;;;-0.21;74.06
11692;BME280;33659;42.672;23.354;2023-01-30T03:52:04;94464.47;;;-0.23;74.16
11692;BME280;33659;42.672;23.354;2023-01-30T03:54:30;94493.47;;;-0.12;73.99
11692;BME280;33659;42.672;23.354;2023-01-30T03:56:57;94474.75;;;-0.13;73.81
11692;BME280;33659;42.672;23.354;2023-01-30T03:59:24;94476.25;;;-0.02;74.31
11692;BME280;33659;42.672;23.354;2023-01-30T04:01:50;94474.69;;;0.13;73.55
11692;BME280;33659;42.672;23.354;2023-01-30T04:04:17;94470.06;;;0.30;73.19
11692;BME280;33659;42.672;23.354;2023-01-30T04:06:44;94474.69;;;0.28;72.81
11692;BME280;33659;42.672;23.354;2023-01-30T04:09:12;94463.41;;;0.19;72.41
11692;BME280;33659;42.672;23.354;2023-01-30T04:11:38;94478.84;;;0.14;72.92
11692;BME280;33659;42.672;23.354;2023-01-30T04:14:05;94477.03;;;0.14;72.92
11692;BME280;33659;42.672;23.354;2023-01-30T04:16:32;94474.69;;;0.28;72.34
11692;BME280;33659;42.672;23.354;2023-01-30T04:18:58;94475.47;;;0.23;72.78
11692;BME280;33659;42.672;23.354;2023-01-30T04:21:25;94471.88;;;0.24;73.04
11692;BME280;33659;42.672;23.354;2023-01-30T04:23:51;94468.03;;;0.27;72.61
11692;BME280;33659;42.672;23.354;2023-01-30T04:26:19;94459.06;;;0.19;72.94
11692;BME280;33659;42.672;23.354;2023-01-30T04:28:46;94460.06;;;0.18;73.49
11692;BME280;33659;42.672;23.354;2023-01-30T04:31:13;94470.59;;;0.17;73.33
11692;BME280;33659;42.672;23.354;2023-01-30T04:33:39;94476.75;;;0.21;73.47
11692;BME280;33659;42.672;23.354;2023-01-30T04:36:08;94484.47;;;0.21;73.37
11692;BME280;33659;42.672;23.354;2023-01-30T04:38:35;94469.56;;;0.18;73.08
11692;BME280;33659;42.672;23.354;2023-01-30T04:41:03;94459.84;;;0.05;73.73
11692;BME280;33659;42.672;23.354;2023-01-30T04:43:31;94458.56;;;-0.03;74.08
11692;BME280;33659;42.672;23.354;2023-01-30T04:45:57;94457.28;;;-0.16;74.39
11692;BME280;33659;42.672;23.354;2023-01-30T04:48:24;94451.63;;;-0.28;74.49
11692;BME280;33659;42.672;23.354;2023-01-30T04:50:53;94420.34;;;-0.50;74.85
11692;BME280;33659;42.672;23.354;2023-01-30T04:53:20;94450.09;;;-0.29;75.50
11692;BME280;33659;42.672;23.354;2023-01-30T04:55:47;94447.78;;;-0.31;75.35
11692;BME280;33659;42.672;23.354;2023-01-30T04:58:15;94454.22;;;-0.23;75.02
11692;BME280;33659;42.672;23.354;2023-01-30T05:00:44;94430.09;;;-0.22;75.10
11692;BME280;33659;42.672;23.354;2023-01-30T05:03:11;94441.38;;;-0.28;75.51
11692;BME280;33659;42.672;23.354;2023-01-30T05:05:38;94452.16;;;-0.16;75.22
11692;BME280;33659;42.672;23.354;2023-01-30T05:08:04;94443.41;;;-0.15;75.12
11692;BME280;33659;42.672;23.354;2023-01-30T05:10:31;94455.22;;;-0.14;75.47
11692;BME280;33659;42.672;23.354;2023-01-30T05:13:01;94443.94;;;-0.18;75.02
11692;BME280;33659;42.672;23.354;2023-01-30T05:15:28;94451.38;;;-0.21;75.72
11692;BME280;33659;42.672;23.354;2023-01-30T05:17:56;94437.28;;;-0.29;75.74
11692;BME280;33659;42.672;23.354;2023-01-30T05:20:23;94441.38;;;-0.28;75.94
11692;BME280;33659;42.672;23.354;2023-01-30T05:22:50;94451.38;;;-0.21;76.05
11692;BME280;33659;42.672;23.354;2023-01-30T05:25:17;94444.44;;;-0.26;76.21
11692;BME280;33659;42.672;23.354;2023-01-30T05:27:43;94445.75;;;-0.18;76.00
11692;BME280;33659;42.672;23.354;2023-01-30T05:30:10;94425.47;;;-0.35;76.06
11692;BME280;33659;42.672;23.354;2023-01-30T05:32:37;94452.13;;;-0.21;76.77
11692;BME280;33659;42.672;23.354;2023-01-30T05:35:06;94452.66;;;-0.09;76.38
11692;BME280;33659;42.672;23.354;2023-01-30T05:37:33;94450.63;;;-0.12;75.89
11692;BME280;33659;42.672;23.354;2023-01-30T05:39:59;94452.69;;;-0.19;76.44
11692;BME280;33659;42.672;23.354;2023-01-30T05:42:26;94462.41;;;-0.21;76.84
11692;BME280;33659;42.672;23.354;2023-01-30T05:44:53;94449.59;;;-0.16;77.01
11692;BME280;33659;42.672;23.354;2023-01-30T05:47:19;94448.81;;;-0.16;76.77
11692;BME280;33659;42.672;23.354;2023-01-30T05:49:46;94436.50;;;-0.24;76.94
11692;BME280;33659;42.672;23.354;2023-01-30T05:52:14;94459.34;;;-0.23;76.97
11692;BME280;33659;42.672;23.354;2023-01-30T05:54:41;94452.16;;;-0.16;77.13
11692;BME280;33659;42.672;23.354;2023-01-30T05:57:07;94461.38;;;-0.20;76.53
11692;BME280;33659;42.672;23.354;2023-01-30T05:59:34;94478.84;;;-0.22;76.94
11692;BME280;33659;42.672;23.354;2023-01-30T06:02:01;94458.06;;;-0.10;77.04
11692;BME280;33659;42.672;23.354;2023-01-30T06:04:27;94471.38;;;-0.08;76.96
11692;BME280;33659;42.672;23.354;2023-01-30T06:06:54;94467.56;;;-0.11;76.75
11692;BME280;33659;42.672;23.354;2023-01-30T06:09:22;94480.66;;;-0.12;76.77
11692;BME280;33659;42.672;23.354;2023-01-30T06:11:49;94460.88;;;-0.12;77.58
11692;BME280;33659;42.672;23.354;2023-01-30T06:14:16;94455.97;;;-0.13;77.17
11692;BME280;33659;42.672;23.354;2023-01-30T06:16:43;94463.94;;;-0.10;77.52
11692;BME280;33659;42.672;23.354;2023-01-30T06:19:10;94463.41;;;-0.07;77.63
11692;BME280;33659;42.672;23.354;2023-01-30T06:21:36;94456.75;;;-0.03;76.67
11692;BME280;33659;42.672;23.354;2023-01-30T06:24:03;94453.69;;;-0.20;77.29
11692;BME280;33659;42.672;23.354;2023-01-30T06:26:31;94455.25;;;-0.19;77.33
11692;BME280;33659;42.672;23.354;2023-01-30T06:28:58;94446.50;;;-0.18;77.29
11692;BME280;33659;42.672;23.354;2023-01-30T06:31:24;94435.97;;;-0.27;77.40
11692;BME280;33659;42.672;23.354;2023-01-30T06:33:51;94435.22;;;-0.37;77.45
11692;BME280;33659;42.672;23.354;2023-01-30T06:36:18;94457.03;;;-0.45;77.72
11692;BME280;33659;42.672;23.354;2023-01-30T06:38:44;94452.13;;;-0.41;78.18
11692;BME280;33659;42.672;23.354;2023-01-30T06:41:11;94455.97;;;-0.39;78.39
11692;BME280;33659;42.672;23.354;2023-01-30T06:43:40;94459.31;;;-0.33;77.65
11692;BME280;33659;42.672;23.354;2023-01-30T06:46:07;94466.50;;;-0.35;78.16
11692;BME280;33659;42.672;23.354;2023-01-30T06:48:34;94449.06;;;-0.23;78.06
11692;BME280;33659;42.672;23.354;2023-01-30T06:51:00;94464.22;;;-0.32;78.12
11692;BME280;33659;42.672;23.354;2023-01-30T06:53:27;94459.84;;;-0.36;77.96
11692;BME280;33659;42.672;23.354;2023-01-30T06:55:55;94468.31;;;-0.31;77.92
11692;BME280;33659;42.672;23.354;2023-01-30T06:58:22;94459.59;;;-0.24;78.19
11692;BME280;33659;42.672;23.354;2023-01-30T07:00:50;94467.03;;;-0.18;78.00
11692;BME280;33659;42.672;23.354;2023-01-30T07:03:17;94475.25;;;-0.16;77.83
11692;BME280;33659;42.672;23.354;2023-01-30T07:05:45;94463.97;;;-0.25;77.77
11692;BME280;33659;42.672;23.354;2023-01-30T07:08:13;94456.25;;;-0.35;77.99
11692;BME280;33659;42.672;23.354;2023-01-30T07:10:40;94469.84;;;-0.09;77.58
11692;BME280;33659;42.672;23.354;2023-01-30T07:13:07;94476.25;;;0.04;77.23
11692;BME280;33659;42.672;23.354;2023-01-30T07:15:34;94483.47;;;0.07;77.04
11692;BME280;33659;42.672;23.354;2023-01-30T07:18:02;94473.69;;;-0.07;77.03
11692;BME280;33659;42.672;23.354;2023-01-30T07:20:29;94478.59;;;0.00;76.48
11692;BME280;33659;42.672;23.354;2023-01-30T07:22:56;94478.84;;;0.04;76.49
11692;BME280;33659;42.672;23.354;2023-01-30T07:25:24;94477.53;;;0.06;76.49
11692;BME280;33659;42.672;23.354;2023-01-30T07:27:52;94473.19;;;0.02;76.41
11692;BME280;33659;42.672;23.354;2023-01-30T07:30:19;94502.47;;;0.01;76.45
11692;BME280;33659;42.672;23.354;2023-01-30T07:32:49;94495.78;;;-0.06;76.13
11692;BME280;33659;42.672;23.354;2023-01-30T07:35:17;94485.00;;;-0.03;76.30
11692;BME280;33659;42.672;23.354;2023-01-30T07:37:45;94500.41;;;-0.03;76.17
11692;BME280;33659;42.672;23.354;2023-01-30T07:40:12;94497.06;;;-0.08;76.01
11692;BME280;33659;42.672;23.354;2023-01-30T07:42:39;94498.34;;;-0.06;76.16
11692;BME280;33659;42.672;23.354;2023-01-30T07:45:07;94499.38;;;0.04;76.07
11692;BME280;33659;42.672;23.354;2023-01-30T07:47:33;94481.63;;;0.12;75.67
11692;BME280;33659;42.672;23.354;2023-01-30T07:50:00;94499.59;;;0.12;75.65
11692;BME280;33659;42.672;23.354;2023-01-30T07:52:28;94497.53;;;0.24;75.58
11692;BME280;33659;42.672;23.354;2023-01-30T07:54:55;94481.38;;;0.29;74.96
11692;BME280;33659;42.672;23.354;2023-01-30T07:57:22;94480.06;;;0.37;74.72
11692;BME280;33659;42.672;23.354;2023-01-30T07:59:48;94481.09;;;0.36;73.71
11692;BME280;33659;42.672;23.354;2023-01-30T08:02:15;94480.34;;;0.40;73.34
11692;BME280;33659;42.672;23.354;2023-01-30T08:04:42;94471.81;;;0.45;73.91
11692;BME280;33659;42.672;23.354;2023-01-30T08:07:09;94479.25;;;0.51;73.55
11692;BME280;33659;42.672;23.354;2023-01-30T08:09:37;94476.94;;;0.60;73.56
11692;BME280;33659;42.672;23.354;2023-01-30T08:12:04;94462.31;;;0.56;72.97
11692;BME280;33659;42.672;23.354;2023-01-30T08:14:30;94464.84;;;0.66;72.84
11692;BME280;33659;42.672;23.354;2023-01-30T08:16:57;94468.94;;;0.72;73.29
11692;BME280;33659;42.672;23.354;2023-01-30T08:19:24;94459.16;;;0.74;73.05
11692;BME280;33659;42.672;23.354;2023-01-30T08:21:50;94456.13;;;0.62;72.48
11692;BME280;33659;42.672;23.354;2023-01-30T08:24:17;94456.13;;;0.57;72.60
11692;BME280;33659;42.672;23.354;2023-01-30T08:26:46;94462.84;;;0.52;73.07
11692;BME280;33659;42.672;23.354;2023-01-30T08:29:13;94466.94;;;0.53;72.93
11692;BME280;33659;42.672;23.354;2023-01-30T08:31:40;94448.41;;;0.57;72.86
11692;BME280;33659;42.672;23.354;2023-01-30T08:34:06;94451.00;;;0.57;72.75
11692;BME280;33659;42.672;23.354;2023-01-30T08:36:33;94454.09;;;0.48;71.84
11692;BME280;33659;42.672;23.354;2023-01-30T08:39:00;94443.06;;;0.43;72.53
11692;BME280;33659;42.672;23.354;2023-01-30T08:41:26;94434.31;;;0.49;72.72
11692;BME280;33659;42.672;23.354;2023-01-30T08:43:54;94438.94;;;0.52;71.66
11692;BME280;33659;42.672;23.354;2023-01-30T08:46:21;94435.59;;;0.51;72.49
11692;BME280;33659;42.672;23.354;2023-01-30T08:48:48;94436.63;;;0.56;72.53
11692;BME280;33659;42.672;23.354;2023-01-30T08:51:14;94443.53;;;0.65;72.03
11692;BME280;33659;42.672;23.354;2023-01-30T08:53:41;94444.78;;;0.68;71.90
11692;BME280;33659;42.672;23.354;2023-01-30T08:56:07;94433.47;;;0.74;71.12
11692;BME280;33659;42.672;23.354;2023-01-30T08:58:34;94442.91;;;0.84;70.80
11692;BME280;33659;42.672;23.354;2023-01-30T09:01:05;94426.72;;;0.83;70.69
11692;BME280;33659;42.672;23.354;2023-01-30T09:03:32;94432.91;;;0.82;70.60
11692;BME280;33659;42.672;23.354;2023-01-30T09:05:59;94429.56;;;0.81;71.15
11692;BME280;33659;42.672;23.354;2023-01-30T09:08:25;94420.59;;;0.79;70.39
11692;BME280;33659;42.672;23.354;2023-01-30T09:10:56;94418.31;;;0.72;71.01
11692;BME280;33659;42.672;23.354;2023-01-30T09:13:23;94417.28;;;0.73;71.36
11692;BME280;33659;42.672;23.354;2023-01-30T09:15:50;94416.78;;;0.71;70.41
11692;BME280;33659;42.672;23.354;2023-01-30T09:18:18;94418.06;;;0.64;71.20
11692;BME280;33659;42.672;23.354;2023-01-30T09:20:45;94411.19;;;0.54;71.37
11692;BME280;33659;42.672;23.354;2023-01-30T09:23:11;94414.75;;;0.63;71.00
11692;BME280;33659;42.672;23.354;2023-01-30T09:25:38;94402.13;;;0.72;70.63
11692;BME280;33659;42.672;23.354;2023-01-30T09:28:05;94413.97;;;0.58;70.10
11692;BME280;33659;42.672;23.354;2023-01-30T09:30:32;94413.50;;;0.50;70.83
11692;BME280;33659;42.672;23.354;2023-01-30T09:32:59;94407.38;;;0.41;71.56
11692;BME280;33659;42.672;23.354;2023-01-30T09:35:27;94414.06;;;0.32;71.44
11692;BME280;33659;42.672;23.354;2023-01-30T09:37:54;94408.22;;;0.21;71.83
11692;BME280;33659;42.672;23.354;2023-01-30T09:40:22;94411.53;;;0.17;72.17
11692;BME280;33659;42.672;23.354;2023-01-30T09:43:10;94403.56;;;0.29;71.93
11692;BME280;33659;42.672;23.354;2023-01-30T09:45:43;94407.88;;;0.38;72.20
11692;BME280;33659;42.672;23.354;2023-01-30T09:48:17;94379.34;;;0.50;71.63
11692;BME280;33659;42.672;23.354;2023-01-30T09:51:10;94389.66;;;0.40;71.95
11692;BME280;33659;42.672;23.354;2023-01-30T09:53:51;94389.16;;;0.38;72.34
11692;BME280;33659;42.672;23.354;2023-01-30T09:56:19;94389.41;;;0.41;72.33
11692;BME280;33659;42.672;23.354;2023-01-30T09:58:49;94360.41;;;0.31;72.50
11692;BME280;33659;42.672;23.354;2023-01-30T10:01:26;94385.22;;;0.61;71.91
11692;BME280;33659;42.672;23.354;2023-01-30T10:04:05;94363.66;;;0.57;71.29
11692;BME280;33659;42.672;23.354;2023-01-30T10:06:42;94373.22;;;0.46;71.99
11692;BME280;33659;42.672;23.354;2023-01-30T10:09:13;94363.22;;;0.34;72.24
11692;BME280;33659;42.672;23.354;2023-01-30T10:11:52;94349.16;;;0.11;72.61
11692;BME280;33659;42.672;23.354;2023-01-30T10:14:43;94348.91;;;0.13;72.99
11692;BME280;33659;42.672;23.354;2023-01-30T10:17:22;94348.69;;;0.09;73.06
11692;BME280;33659;42.672;23.354;2023-01-30T10:20:02;94338.41;;;0.09;73.20
11692;BME280;33659;42.672;23.354;2023-01-30T10:22:41;94334.78;;;0.15;72.66
11692;BME280;33659;42.672;23.354;2023-01-30T10:25:21;94331.75;;;0.03;72.90
11692;BME280;33659;42.672;23.354;2023-01-30T10:27:57;94331.25;;;0.01;73.27
11692;BME280;33659;42.672;23.354;2023-01-30T10:30:24;94313.28;;;-0.04;72.35
11692;BME280;33659;42.672;23.354;2023-01-30T10:32:54;94321.28;;;-0.16;72.57
11692;BME280;33659;42.672;23.354;2023-01-30T10:35:25;94315.63;;;-0.13;72.92
11692;BME280;33659;42.672;23.354;2023-01-30T10:37:58;94296.09;;;-0.09;72.28
11692;BME280;33659;42.672;23.354;2023-01-30T10:40:31;94310.75;;;-0.14;71.83
11692;BME280;33659;42.672;23.354;2023-01-30T10:43:05;94297.16;;;-0.15;71.91
11692;BME280;33659;42.672;23.354;2023-01-30T10:45:40;94285.06;;;-0.04;71.76
11692;BME280;33659;42.672;23.354;2023-01-30T10:48:26;94303.03;;;0.01;71.52
11692;BME280;33659;42.672;23.354;2023-01-30T10:51:04;94277.06;;;0.08;71.22
11692;BME280;33659;42.672;23.354;2023-01-30T10:53:37;94294.78;;;0.04;71.33
11692;BME280;33659;42.672;23.354;2023-01-30T10:56:13;94261.94;;;0.01;71.17
11692;BME280;33659;42.672;23.354;2023-01-30T10:58:49;94269.66;;;-0.04;71.14
11692;BME280;33659;42.672;23.354;2023-01-30T11:01:22;94273.00;;;-0.04;71.58
11692;BME280;33659;42.672;23.354;2023-01-30T11:03:52;94246.78;;;0.05;71.16
11692;BME280;33659;42.672;23.354;2023-01-30T11:06:23;94241.16;;;0.03;71.47
11692;BME280;33659;42.672;23.354;2023-01-30T11:08:52;94236.44;;;0.20;71.05
11692;BME280;33659;42.672;23.354;2023-01-30T11:11:24;94245.38;;;0.33;70.59
11692;BME280;33659;42.672;23.354;2023-01-30T11:14:01;94218.38;;;0.35;69.90
11692;BME280;33659;42.672;23.354;2023-01-30T11:16:29;94226.09;;;0.30;69.80
11692;BME280;33659;42.672;23.354;2023-01-30T11:18:56;94216.31;;;0.32;69.60
11692;BME280;33659;42.672;23.354;2023-01-30T11:21:27;94227.88;;;0.40;69.42
11692;BME280;33659;42.672;23.354;2023-01-30T11:24:02;94214.72;;;0.46;69.22
11692;BME280;33659;42.672;23.354;2023-01-30T11:26:32;94215.88;;;0.64;69.15
11692;BME280;33659;42.672;23.354;2023-01-30T11:29:14;94218.41;;;0.69;68.06
11692;BME280;33659;42.672;23.354;2023-01-30T11:31:41;94201.59;;;0.82;68.37
11692;BME280;33659;42.672;23.354;2023-01-30T11:34:13;94194.03;;;0.96;67.74
11692;BME280;33659;42.672;23.354;2023-01-30T11:36:41;94203.03;;;0.98;67.27
11692;BME280;33659;42.672;23.354;2023-01-30T11:39:20;94179.16;;;0.93;66.96
11692;BME280;33659;42.672;23.354;2023-01-30T11:41:57;94182.09;;;1.34;66.49
11692;BME280;33659;42.672;23.354;2023-01-30T11:44:27;94179.00;;;1.80;65.02
11692;BME280;33659;42.672;23.354;2023-01-30T11:46:57;94181.25;;;2.05;63.90
11692;BME280;33659;42.672;23.354;2023-01-30T11:49:29;94157.41;;;2.00;63.51
11692;BME280;33659;42.672;23.354;2023-01-30T11:51:58;94155.84;;;1.99;63.95
11692;BME280;33659;42.672;23.354;2023-01-30T11:54:30;94156.56;;;2.04;64.08
11692;BME280;33659;42.672;23.354;2023-01-30T11:57:01;94164.16;;;2.14;63.40
11692;BME280;33659;42.672;23.354;2023-01-30T11:59:31;94164.97;;;2.29;63.82
11692;BME280;33659;42.672;23.354;2023-01-30T12:02:03;94156.00;;;2.26;63.24
11692;BME280;33659;42.672;23.354;2023-01-30T12:04:31;94140.97;;;2.14;63.55
11692;BME280;33659;42.672;23.354;2023-01-30T12:07:05;94132.69;;;2.17;63.43
11692;BME280;33659;42.672;23.354;2023-01-30T12:09:36;94118.63;;;2.10;63.38
11692;BME280;33659;42.672;23.354;2023-01-30T12:12:25;94115.91;;;2.20;62.74
11692;BME280;33659;42.672;23.354;2023-01-30T12:14:53;94116.63;;;2.26;62.95
11692;BME280;33659;42.672;23.354;2023-01-30T12:17:34;94111.22;;;2.41;63.00
11692;BME280;33659;42.672;23.354;2023-01-30T12:20:10;94117.75;;;2.52;62.42
11692;BME280;33659;42.672;23.354;2023-01-30T12:22:44;94098.16;;;2.84;61.03
11692;BME280;33659;42.672;23.354;2023-01-30T12:25:19;94105.59;;;3.40;59.42
11692;BME280;33659;42.672;23.354;2023-01-30T12:27:53;94099.50;;;3.50;58.47
11692;BME280;33659;42.672;23.354;2023-01-30T12:30:32;94090.13;;;3.40;58.62
11692;BME280;33659;42.672;23.354;2023-01-30T12:33:03;94085.34;;;3.34;59.09
11692;BME280;33659;42.672;23.354;2023-01-30T12:35:40;94088.56;;;3.53;58.80
11692;BME280;33659;42.672;23.354;2023-01-30T12:38:19;94088.69;;;3.62;57.96
11692;BME280;33659;42.672;23.354;2023-01-30T12:41:02;94079.66;;;4.09;56.18
11692;BME280;33659;42.672;23.354;2023-01-30T12:43:45;94083.44;;;5.19;54.86
11692;BME280;33659;42.672;23.354;2023-01-30T12:46:32;94062.72;;;6.28;50.43
11692;BME280;33659;42.672;23.354;2023-01-30T12:52:13;94052.31;;;6.54;47.50
11692;BME280;33659;42.672;23.354;2023-01-30T12:54:52;94069.50;;;5.46;50.42
11692;BME280;33659;42.672;23.354;2023-01-30T12:57:28;94039.16;;;4.49;53.37
11692;BME280;33659;42.672;23.354;2023-01-30T13:00:10;94047.75;;;3.91;55.27
11692;BME280;33659;42.672;23.354;2023-01-30T13:02:51;94047.69;;;3.83;56.32
11692;BME280;33659;42.672;23.354;2023-01-30T13:05:31;94051.13;;;3.56;56.31
11692;BME280;33659;42.672;23.354;2023-01-30T13:08:17;94040.91;;;3.87;55.71
11692;BME280;33659;42.672;23.354;2023-01-30T13:10:51;94035.84;;;3.82;56.48
11692;BME280;33659;42.672;23.354;2023-01-30T13:13:29;94045.16;;;3.69;56.83
11692;BME280;33659;42.672;23.354;2023-01-30T13:16:02;94049.59;;;3.41;57.56
11692;BME280;33659;42.672;23.354;2023-01-30T13:18:37;94038.84;;;3.11;58.29
11692;BME280;33659;42.672;23.354;2023-01-30T13:21:09;94045.53;;;2.85;58.96